KMBT

Details ICAO KMBT
Name MURFREESBORO MUNI
Region United States
Timezone America/Chicago (UTC-5.0)
Plans Departing 26
Arriving 5
Stats Elevation 615 ft / 187 m (AMSL)
Location 35.877485° -86.377532°
Runways 1
Magnetic Variation 4.062° W
Sunrise 2018-05-27 10:33:55 UTC / 2018-05-27 05:33:55 Local
Sunset 2018-05-28 00:54:21 UTC / 2018-05-27 19:54:21 Local
Advertisement - Login to hide

Runways

ID Width Length Bearing (true) Bearing (mag) Surface Threshold Offset Overrun Length
18 100 ft / 30 m 3,907 ft / 1,191 m 182.45° 186.51° Asphalt 0 ft / 0 m 0 ft / 0 m
36 100 ft / 30 m 3,907 ft / 1,191 m 2.45° 6.51° Asphalt 0 ft / 0 m 0 ft / 0 m

Map

Weather


0- 5 10 15 20 25 30 35+ Temperature / ° C

Clouds and Precipitation
Forecast for 2018-05-27 12:00 UTC. Updated 3 hours ago

Ground ~20,000 ft ~40,000 ft Winds

METAR

KMBT 271415Z AUTO 00000KT 10SM CLR 27/21 A2994 RMK A01

TAF

Not found

Frequencies

Recorded 133.97 MHz AWOS 3
Approach 128.45 MHz NASHVILLE APP/DEP
Unicom 122.70 MHz CTAF/UNICOM
Warning: Do not use this data for real-world aviation or navigation. No guarantee of current accuracy is given.